KDXR/DXR METAR and TAF weather

Enter ICAO airport designator
Station Type Date Time Source
KDXR METAR 2021/01/16 02:53 UTC NOAA

KDXR 160253Z 08012KT 10SM OVC017 04/01 A2986 RMK AO2 RAB00E40 SLP113 P0000 60000 T00390011 58035


Station Type Date Time Source
KDXR Decoded METAR 2021/01/16 02:53 UTC NOAA

DANBURY MUNICIPAL AIRPORT, CT, United States (KDXR) 41-22N 073-29W 139M
Jan 15, 2021 - 09:53 PM EST / 2021.01.16 0253 UTC
Wind: from the E (080 degrees) at 14 MPH (12 KT):0
Visibility: 10 mile(s):0
Sky conditions: overcast
Precipitation last hour: A trace
Temperature: 39.0 F (3.9 C)
Dew Point: 34.0 F (1.1 C)
Relative Humidity: 81%
Pressure (altimeter): 29.86 in. Hg (1011 hPa)
Pressure tendency: 0.10 inches (3.5 hPa) lower than three hours ago
ob: KDXR 160253Z 08012KT 10SM OVC017 04/01 A2986 RMK AO2 RAB00E40 SLP113 P0000 60000 T00390011 58035
cycle: 3

Station Type Date Time Source
KDXR TAF UTC NOAA

Error!

Example: see airport list